Time;durP1;ratioP1;P1;durP2;ratioP2;P2;SDS_P1;SDS_P2;PMS_P1;PMS_P2;Temp;Humidity;BMP_temperature;BMP_pressure;BME280_temperature;BME280_humidity;BME280_pressure;Samples;Min_cycle;Max_cycle;Signal;HPM_P1;HPM_P2
2022/12/20 13:10:52;;;;;;;0.20;0.10;;;19.30;99.90;;;;;;20896538;28;20426;-75
2022/12/20 13:21:28;;;;;;;0.20;0.00;;;18.80;99.90;;;;;;20883810;28;20413;-72
2022/12/20 13:31:36;;;;;;;0.20;0.10;;;18.30;99.90;;;;;;20902210;28;20907;-75
2022/12/20 13:41:46;;;;;;;0.20;0.00;;;18.60;99.90;;;;;;20897921;28;20503;-87
2022/12/20 13:52:06;;;;;;;0.20;0.00;;;18.60;99.90;;;;;;20889881;28;20487;-85
2022/12/20 14:02:19;;;;;;;0.20;0.10;;;18.50;99.90;;;;;;20871936;28;20461;-88
2022/12/20 14:12:24;;;;;;;0.20;0.00;;;18.00;99.90;;;;;;20870057;28;20486;-85
2022/12/20 14:22:37;;;;;;;0.20;0.00;;;17.90;99.90;;;;;;20880169;28;20526;-82
2022/12/20 14:32:41;;;;;;;0.20;0.10;;;18.50;99.90;;;;;;20878771;28;20482;-76
2022/12/20 14:42:47;;;;;;;0.20;0.00;;;18.50;99.90;;;;;;20896035;28;20442;-75
2022/12/20 14:52:51;;;;;;;0.20;0.00;;;18.00;99.90;;;;;;20895323;28;20431;-79
2022/12/20 15:03:11;;;;;;;0.20;0.00;;;17.00;99.90;;;;;;20864708;28;20427;-80
2022/12/20 15:13:16;;;;;;;0.20;0.05;;;16.40;99.90;;;;;;20882620;28;20413;-76
2022/12/20 15:23:22;;;;;;;0.20;0.00;;;16.00;99.90;;;;;;20864684;28;20547;-77
2022/12/20 15:33:30;;;;;;;0.20;0.10;;;15.80;99.90;;;;;;20879938;28;20491;-93
2022/12/20 15:43:39;;;;;;;0.20;0.10;;;15.70;99.90;;;;;;20897041;28;20447;-84
2022/12/20 15:53:43;;;;;;;0.20;0.10;;;15.60;99.90;;;;;;20877949;28;20874;-83
2022/12/20 16:03:48;;;;;;;0.20;0.10;;;15.70;99.90;;;;;;20877289;28;20426;-73
2022/12/20 16:13:52;;;;;;;0.20;0.10;;;15.60;99.90;;;;;;20890315;28;20721;-81
2022/12/20 16:23:57;;;;;;;0.20;0.00;;;15.50;99.90;;;;;;20888489;28;20989;-76
2022/12/20 16:34:03;;;;;;;0.20;0.10;;;15.40;99.90;;;;;;20916349;28;20411;-83
2022/12/20 16:44:13;;;;;;;0.20;0.10;;;15.50;99.90;;;;;;20907224;28;20826;-80
2022/12/20 16:54:20;;;;;;;0.20;0.07;;;15.30;99.90;;;;;;20855652;28;20418;-82
2022/12/20 17:04:26;;;;;;;0.20;0.10;;;15.10;99.90;;;;;;20896873;28;20468;-83
2022/12/20 17:14:30;;;;;;;0.20;0.10;;;15.10;99.90;;;;;;20870877;28;20404;-84
2022/12/20 17:24:35;;;;;;;0.20;0.00;;;15.10;99.90;;;;;;20870826;28;20506;-82
2022/12/20 17:34:39;;;;;;;0.20;0.00;;;15.00;99.90;;;;;;20904980;28;20498;-84
2022/12/20 17:44:46;;;;;;;0.20;0.10;;;14.90;99.90;;;;;;20868622;28;20503;-79
2022/12/20 17:54:49;;;;;;;0.20;0.10;;;14.60;99.90;;;;;;20871965;28;20439;-68
2022/12/20 18:04:54;;;;;;;0.20;0.08;;;14.40;99.90;;;;;;20863063;28;20510;-77
2022/12/20 18:14:58;;;;;;;0.20;0.00;;;13.90;99.90;;;;;;20866815;28;20518;-75
2022/12/20 18:25:06;;;;;;;0.20;0.10;;;14.00;99.90;;;;;;20898840;28;20412;-84
2022/12/20 18:35:10;;;;;;;0.20;0.10;;;14.00;99.90;;;;;;20863383;28;20515;-84
2022/12/20 18:45:16;;;;;;;0.20;0.00;;;13.50;99.90;;;;;;20879470;28;20490;-81
2022/12/20 18:55:20;;;;;;;0.20;0.00;;;13.20;99.90;;;;;;20895306;28;20509;-83
2022/12/20 19:05:26;;;;;;;0.20;0.07;;;13.00;99.90;;;;;;20895054;28;20469;-69
2022/12/20 19:15:30;;;;;;;0.20;0.00;;;12.70;99.90;;;;;;20892141;28;20471;-70
2022/12/20 19:25:36;;;;;;;0.20;0.10;;;12.70;99.90;;;;;;20892621;28;20419;-70
2022/12/20 19:35:40;;;;;;;0.20;0.00;;;12.70;99.90;;;;;;20892354;28;20411;-81
2022/12/20 19:46:01;;;;;;;0.20;0.10;;;12.50;99.90;;;;;;20870355;28;20403;-80
2022/12/20 19:56:06;;;;;;;0.20;0.00;;;12.60;99.90;;;;;;20833099;28;20402;-81
2022/12/20 20:06:11;;;;;;;0.20;0.10;;;12.70;99.90;;;;;;20870874;28;20399;-79
2022/12/20 20:16:15;;;;;;;0.20;0.00;;;12.90;99.90;;;;;;20871049;28;20400;-78
2022/12/20 20:26:30;;;;;;;0.20;0.10;;;12.90;99.90;;;;;;20897213;28;20535;-76
2022/12/20 20:36:34;;;;;;;0.20;0.00;;;13.00;99.90;;;;;;20902366;28;20415;-77
2022/12/20 20:46:39;;;;;;;0.20;0.10;;;12.70;99.90;;;;;;20866746;28;20431;-71
2022/12/20 20:56:43;;;;;;;0.20;0.00;;;12.30;99.90;;;;;;20883732;28;20416;-79
2022/12/20 21:06:48;;;;;;;0.20;0.00;;;12.30;99.90;;;;;;20901792;28;20870;-79
2022/12/20 21:16:52;;;;;;;0.20;0.00;;;12.30;99.90;;;;;;20901355;28;20597;-79
2022/12/20 21:26:57;;;;;;;0.20;0.10;;;12.50;99.90;;;;;;20880141;28;20399;-78
2022/12/20 21:37:01;;;;;;;0.20;0.00;;;12.30;99.90;;;;;;20863495;28;20530;-79
2022/12/20 21:47:07;;;;;;;0.20;0.10;;;12.20;99.90;;;;;;20863050;28;20400;-78
2022/12/20 21:57:11;;;;;;;0.20;0.10;;;11.90;99.90;;;;;;20879574;28;20828;-78
2022/12/20 22:07:17;;;;;;;0.20;0.00;;;12.10;99.90;;;;;;20878400;28;20400;-80
2022/12/20 22:17:21;;;;;;;0.20;0.00;;;11.90;99.90;;;;;;20897785;28;20874;-81
2022/12/20 22:27:26;;;;;;;0.20;0.00;;;11.80;99.90;;;;;;20883207;28;20429;-81
2022/12/20 22:37:30;;;;;;;0.20;0.00;;;11.80;99.90;;;;;;20851001;28;21245;-84
2022/12/20 22:47:36;;;;;;;0.20;0.10;;;11.70;99.90;;;;;;20875606;28;20407;-83
2022/12/20 22:57:57;;;;;;;0.20;0.05;;;12.30;99.90;;;;;;20878202;28;20415;-80
2022/12/20 23:08:02;;;;;;;0.20;0.10;;;12.80;99.90;;;;;;20895101;28;20416;-80
2022/12/20 23:18:05;;;;;;;0.20;0.10;;;13.40;99.90;;;;;;20878690;28;20399;-80
2022/12/20 23:28:10;;;;;;;0.20;0.00;;;13.60;99.90;;;;;;20896381;28;20954;-78
2022/12/20 23:38:14;;;;;;;0.20;0.10;;;13.90;99.90;;;;;;20896352;28;20469;-79
2022/12/20 23:48:20;;;;;;;0.20;0.10;;;13.80;99.90;;;;;;20896063;28;20567;-84
2022/12/20 23:58:23;;;;;;;0.20;0.10;;;13.90;99.90;;;;;;20883776;28;20415;-82
